Time;durP1;ratioP1;P1;durP2;ratioP2;P2;SDS_P1;SDS_P2;PMS_P1;PMS_P2;Temp;Humidity;BMP_temperature;BMP_pressure;BME280_temperature;BME280_humidity;BME280_pressure;Samples;Min_cycle;Max_cycle;Signal;HPM_P1;HPM_P2
2023/12/17 00:01:25;;;;;;;40.85;21.30;;;;;;;0.77;96.46;101891.50;5031464;28;20393;-38
2023/12/17 00:03:51;;;;;;;43.88;21.25;;;;;;;1.15;94.63;101874.50;5031443;28;20657;-37
2023/12/17 00:06:16;;;;;;;42.55;21.80;;;;;;;1.34;91.80;101890.81;5031275;28;20063;-36
2023/12/17 00:08:42;;;;;;;41.85;20.98;;;;;;;1.08;91.98;101894.13;5031380;28;20539;-37
2023/12/17 00:11:08;;;;;;;37.05;19.58;;;;;;;1.00;91.60;101893.75;5031757;28;20097;-39
2023/12/17 00:13:35;;;;;;;39.00;20.55;;;;;;;0.78;89.63;101892.34;5031548;28;20108;-36
2023/12/17 00:16:00;;;;;;;40.08;21.70;;;;;;;0.56;88.83;101892.72;5031503;28;20048;-36
2023/12/17 00:18:26;;;;;;;43.28;21.35;;;;;;;0.63;88.61;101894.06;5031178;28;20411;-38
2023/12/17 00:20:51;;;;;;;41.15;21.45;;;;;;;1.06;87.85;101904.72;5030908;28;20073;-39
2023/12/17 00:23:16;;;;;;;44.40;21.38;;;;;;;1.56;86.09;101906.16;5031033;28;20020;-38
2023/12/17 00:25:42;;;;;;;40.92;23.23;;;;;;;1.55;84.67;101909.69;5031589;28;20039;-38
2023/12/17 00:28:07;;;;;;;51.53;25.55;;;;;;;1.80;84.93;101913.47;5031117;28;20031;-37
2023/12/17 00:30:33;;;;;;;49.42;25.25;;;;;;;1.83;84.04;101904.53;5031231;28;20049;-37
2023/12/17 00:32:58;;;;;;;47.67;24.60;;;;;;;1.92;83.70;101914.47;5030824;28;20041;-37
2023/12/17 00:35:24;;;;;;;55.10;25.90;;;;;;;1.91;83.20;101913.66;5030984;28;20036;-39
2023/12/17 00:37:49;;;;;;;57.53;26.85;;;;;;;2.02;83.83;101912.13;5036350;28;20023;-39
2023/12/17 00:40:14;;;;;;;47.22;24.67;;;;;;;1.95;83.11;101912.50;5050683;28;20515;-36
2023/12/17 00:42:40;;;;;;;50.22;25.48;;;;;;;1.75;83.12;101923.38;5050726;28;20028;-39
2023/12/17 00:45:05;;;;;;;47.83;25.13;;;;;;;1.86;82.67;101922.75;5050697;28;20021;-39
2023/12/17 00:47:31;;;;;;;44.50;23.67;;;;;;;1.65;84.06;101924.88;5050551;28;20024;-39
2023/12/17 00:49:56;;;;;;;45.80;23.05;;;;;;;1.15;87.00;101925.16;5050486;28;20029;-37
2023/12/17 00:52:22;;;;;;;39.85;20.98;;;;;;;0.88;84.64;101926.75;5050541;28;20047;-39
2023/12/17 00:54:50;;;;;;;42.85;21.33;;;;;;;0.75;86.69;101926.59;5050400;28;20024;-39
2023/12/17 00:57:15;;;;;;;49.45;25.05;;;;;;;1.12;89.64;101922.72;5050658;28;20090;-38
2023/12/17 00:59:41;;;;;;;52.60;26.27;;;;;;;1.65;89.93;101928.34;5050609;28;20547;-38
2023/12/17 01:02:06;;;;;;;51.13;25.70;;;;;;;2.01;89.77;101928.84;5050371;28;20017;-39
2023/12/17 01:04:32;;;;;;;48.25;25.30;;;;;;;2.63;87.06;101924.06;5046565;28;20508;-36
2023/12/17 01:06:57;;;;;;;161.10;30.92;;;;;;;3.00;89.04;101928.72;5031349;28;20055;-39
2023/12/17 01:09:22;;;;;;;46.20;24.02;;;;;;;2.53;87.71;101933.44;5030375;28;20056;-37
2023/12/17 01:11:48;;;;;;;44.92;22.77;;;;;;;1.91;88.62;101920.69;5030905;28;20080;-39
2023/12/17 01:14:13;;;;;;;42.25;22.23;;;;;;;1.26;87.71;101926.34;5031008;28;20026;-37
2023/12/17 01:16:39;;;;;;;40.80;21.52;;;;;;;1.03;90.94;101930.25;5031317;28;20025;-38
2023/12/17 01:19:04;;;;;;;46.25;23.52;;;;;;;0.75;93.94;101931.84;5030874;28;20390;-36
2023/12/17 01:21:30;;;;;;;53.05;26.52;;;;;;;1.18;95.17;101918.88;5031253;28;20025;-37
2023/12/17 01:23:57;;;;;;;45.33;24.00;;;;;;;1.74;91.38;101927.81;5031107;28;20017;-39
2023/12/17 01:26:23;;;;;;;46.60;24.30;;;;;;;1.26;91.68;101926.34;5048475;28;20035;-39
2023/12/17 01:28:54;;;;;;;47.55;24.15;;;;;;;0.69;92.83;101935.66;5050946;28;20078;-36
2023/12/17 01:31:20;;;;;;;43.13;23.40;;;;;;;0.51;94.73;101934.88;5050417;28;20067;-39
2023/12/17 01:33:45;;;;;;;44.40;21.70;;;;;;;0.50;95.17;101940.22;5050465;28;20084;-39
2023/12/17 01:36:10;;;;;;;49.88;23.83;;;;;;;1.41;95.84;101933.31;5050589;28;20017;-39
2023/12/17 01:38:36;;;;;;;55.83;22.35;;;;;;;1.29;94.93;101923.50;5050439;28;20459;-39
2023/12/17 01:41:02;;;;;;;58.20;21.05;;;;;;;0.50;95.79;101933.22;5050899;28;20044;-39
2023/12/17 01:43:27;;;;;;;46.35;19.05;;;;;;;0.01;96.35;101942.88;5050826;28;20466;-39
2023/12/17 01:45:53;;;;;;;45.38;20.60;;;;;;;0.30;94.53;101941.31;5049231;28;20107;-39
2023/12/17 01:48:20;;;;;;;57.15;23.95;;;;;;;0.91;94.97;101944.91;5050798;28;20033;-39
2023/12/17 01:50:46;;;;;;;62.65;26.23;;;;;;;1.44;94.60;101934.88;5050503;28;20044;-39
2023/12/17 01:53:13;;;;;;;57.97;22.42;;;;;;;1.32;92.68;101926.81;5050679;28;20365;-38
2023/12/17 01:55:39;;;;;;;46.25;20.83;;;;;;;0.93;90.03;101950.91;5050274;28;20047;-39
2023/12/17 01:58:06;;;;;;;50.45;20.90;;;;;;;1.22;87.92;101924.78;5050709;28;20551;-38
2023/12/17 02:00:32;;;;;;;51.35;23.75;;;;;;;1.44;88.99;101929.63;5050403;28;20020;-39
2023/12/17 02:02:58;;;;;;;59.28;26.55;;;;;;;1.94;89.90;101934.47;5050282;28;20414;-38
2023/12/17 02:05:23;;;;;;;53.72;25.58;;;;;;;2.06;90.00;101939.91;5050312;28;20029;-37
2023/12/17 02:07:48;;;;;;;47.60;22.05;;;;;;;1.72;85.24;101939.34;5050283;28;20028;-37
2023/12/17 02:10:14;;;;;;;43.15;20.00;;;;;;;0.71;84.00;101946.91;5050270;28;20077;-39
2023/12/17 02:12:39;;;;;;;52.80;21.33;;;;;;;0.97;87.87;101949.81;5050144;28;20063;-38
2023/12/17 02:15:06;;;;;;;53.75;23.98;;;;;;;1.29;88.20;101952.38;5050626;28;20116;-39
2023/12/17 02:17:32;;;;;;;49.67;23.08;;;;;;;1.53;87.73;101945.69;5050195;28;20029;-39
2023/12/17 02:19:57;;;;;;;60.00;25.80;;;;;;;1.60;87.38;101948.81;5051345;28;20032;-36
2023/12/17 02:22:24;;;;;;;46.90;22.95;;;;;;;1.38;85.97;101956.25;5053648;28;20025;-39
2023/12/17 02:24:51;;;;;;;47.45;22.55;;;;;;;1.39;86.88;101953.53;5053967;28;20397;-37
2023/12/17 02:27:21;;;;;;;40.88;20.13;;;;;;;0.74;90.27;101951.97;5053780;28;20036;-39
2023/12/17 02:29:46;;;;;;;40.78;19.92;;;;;;;0.56;90.02;101953.81;5053307;28;20025;-39
2023/12/17 02:32:13;;;;;;;46.10;19.60;;;;;;;0.37;92.96;101955.75;5053141;28;20028;-38
2023/12/17 02:34:38;;;;;;;44.50;21.42;;;;;;;1.37;92.02;101952.75;5053377;28;20485;-38
2023/12/17 02:37:04;;;;;;;55.92;23.67;;;;;;;2.01;90.46;101950.69;5053229;28;20103;-39
2023/12/17 02:39:29;;;;;;;50.15;24.77;;;;;;;2.40;88.97;101962.31;5053529;28;20485;-39
2023/12/17 02:41:54;;;;;;;54.42;23.80;;;;;;;2.30;92.42;101954.16;5053426;28;20017;-39
2023/12/17 02:44:20;;;;;;;36.80;18.80;;;;;;;1.57;92.34;101946.34;5053397;28;20056;-38
2023/12/17 02:46:45;;;;;;;39.28;17.88;;;;;;;0.98;94.23;101959.38;5053264;28;20036;-39
2023/12/17 02:49:11;;;;;;;33.78;17.13;;;;;;;0.56;93.20;101950.38;5053067;28;20051;-39
2023/12/17 02:51:36;;;;;;;31.20;16.08;;;;;;;0.37;94.94;101951.38;5053302;28;20109;-36
2023/12/17 02:54:02;;;;;;;34.47;16.42;;;;;;;0.29;94.13;101956.19;5053645;28;20095;-38
2023/12/17 02:56:27;;;;;;;33.58;16.90;;;;;;;0.42;95.21;101951.13;5053293;28;20521;-39
2023/12/17 02:58:53;;;;;;;38.95;17.58;;;;;;;0.60;94.63;101949.25;5052980;28;20029;-38
2023/12/17 03:01:18;;;;;;;30.67;16.25;;;;;;;0.72;92.72;101950.34;5053056;28;20029;-39
2023/12/17 03:03:43;;;;;;;37.25;16.13;;;;;;;0.60;90.85;101956.28;5052855;28;20104;-38
2023/12/17 03:06:09;;;;;;;29.38;15.63;;;;;;;0.36;91.91;101956.69;5053154;28;20370;-39
2023/12/17 03:08:37;;;;;;;28.92;14.90;;;;;;;0.41;90.01;101959.06;5051446;28;20113;-38
2023/12/17 03:11:02;;;;;;;29.95;15.90;;;;;;;0.53;88.12;101955.75;5046342;28;20036;-39
2023/12/17 03:13:29;;;;;;;30.05;16.15;;;;;;;0.11;89.89;101957.16;5032401;28;20017;-39
2023/12/17 03:15:55;;;;;;;28.10;15.75;;;;;;;0.34;88.86;101956.78;5032564;28;20037;-39
2023/12/17 03:18:20;;;;;;;29.50;15.10;;;;;;;-0.03;88.97;101942.19;5032441;28;20144;-38
2023/12/17 03:20:46;;;;;;;28.35;15.13;;;;;;;0.06;87.97;101951.31;5033405;28;20120;-41
2023/12/17 03:23:11;;;;;;;30.38;14.23;;;;;;;0.19;88.24;101955.84;5032770;28;20470;-40
2023/12/17 03:25:37;;;;;;;27.65;15.05;;;;;;;0.21;87.73;101952.28;5032807;28;20025;-40
2023/12/17 03:28:02;;;;;;;29.55;15.38;;;;;;;0.24;87.46;101952.97;5032490;28;20029;-39
2023/12/17 03:30:27;;;;;;;29.88;15.80;;;;;;;0.73;85.32;101954.69;5032491;28;20398;-37
2023/12/17 03:32:53;;;;;;;29.52;15.07;;;;;;;0.88;84.11;101956.44;5031670;28;20045;-39
2023/12/17 03:35:18;;;;;;;28.20;15.35;;;;;;;0.78;84.03;101953.50;5032931;28;20026;-39
2023/12/17 03:37:43;;;;;;;27.42;14.70;;;;;;;0.64;85.50;101952.56;5046452;28;20028;-38
2023/12/17 03:40:09;;;;;;;25.17;13.88;;;;;;;0.60;85.05;101959.75;5052257;28;20119;-38
2023/12/17 03:42:34;;;;;;;24.25;12.80;;;;;;;0.58;83.25;101951.97;5052511;28;20022;-39
2023/12/17 03:45:01;;;;;;;26.88;13.90;;;;;;;0.48;83.79;101955.19;5050998;28;20392;-39
2023/12/17 03:47:27;;;;;;;25.05;14.57;;;;;;;0.09;83.35;101957.22;5052443;28;20052;-38
2023/12/17 03:49:53;;;;;;;23.13;13.52;;;;;;;0.23;84.56;101960.88;5051898;28;20431;-39
2023/12/17 03:52:18;;;;;;;25.67;13.07;;;;;;;-0.10;85.92;101957.34;5052290;28;20055;-39
2023/12/17 03:54:44;;;;;;;23.17;13.05;;;;;;;0.16;84.51;101963.00;5052482;28;20393;-38
2023/12/17 03:57:10;;;;;;;28.05;15.25;;;;;;;0.30;87.87;101965.72;5051997;28;20426;-38
2023/12/17 03:59:37;;;;;;;25.63;14.77;;;;;;;0.71;89.31;101964.41;5052121;28;20029;-38
2023/12/17 04:02:03;;;;;;;30.60;15.30;;;;;;;1.24;88.40;101957.03;5051864;28;20021;-39
2023/12/17 04:04:28;;;;;;;398.13;34.67;;;;;;;1.91;89.14;101954.84;5052074;28;20033;-39
2023/12/17 04:06:54;;;;;;;24.63;14.85;;;;;;;1.39;89.04;101957.91;5052264;28;20040;-39
2023/12/17 04:09:19;;;;;;;25.52;13.75;;;;;;;0.91;87.77;101965.91;5051866;28;20449;-39
2023/12/17 04:11:45;;;;;;;22.02;12.80;;;;;;;0.18;88.12;101969.00;5051712;28;20047;-38
2023/12/17 04:14:10;;;;;;;23.63;12.65;;;;;;;-0.02;90.34;101968.28;5051659;28;20033;-39
2023/12/17 04:16:36;;;;;;;22.35;13.52;;;;;;;0.60;91.39;101978.09;5051486;28;20038;-39
2023/12/17 04:19:02;;;;;;;29.20;13.13;;;;;;;0.41;91.17;101973.00;5051428;28;20035;-39
2023/12/17 04:21:28;;;;;;;21.45;12.00;;;;;;;0.17;90.54;101978.66;5051940;28;20040;-39
2023/12/17 04:23:54;;;;;;;21.98;12.45;;;;;;;-0.25;92.36;101966.88;5051645;28;20151;-39
2023/12/17 04:26:19;;;;;;;22.98;12.27;;;;;;;-0.16;92.62;101978.63;5051216;28;20111;-38
2023/12/17 04:28:44;;;;;;;22.60;12.90;;;;;;;-0.15;94.00;101979.47;5051572;28;20029;-40
2023/12/17 04:31:10;;;;;;;21.02;11.82;;;;;;;0.10;93.54;101979.06;5051183;28;20033;-39
2023/12/17 04:33:35;;;;;;;23.60;13.10;;;;;;;0.06;93.36;101980.13;5049688;28;20049;-37
2023/12/17 04:36:01;;;;;;;22.73;11.88;;;;;;;-0.14;93.03;101974.16;5051239;28;20036;-38
2023/12/17 04:38:26;;;;;;;20.00;11.35;;;;;;;-0.15;92.34;101977.72;5050883;28;20067;-41
2023/12/17 04:40:52;;;;;;;22.55;12.40;;;;;;;-0.36;92.68;101976.19;5051200;28;20082;-39
2023/12/17 04:43:17;;;;;;;23.27;12.00;;;;;;;-0.50;92.04;101982.13;5051039;28;20040;-39
2023/12/17 04:45:42;;;;;;;19.70;11.18;;;;;;;-0.44;91.46;101982.66;5051188;28;20393;-39
2023/12/17 04:48:08;;;;;;;22.98;12.02;;;;;;;-0.30;91.49;101978.50;5051107;28;20025;-38
2023/12/17 04:50:33;;;;;;;16.45;9.85;;;;;;;-0.37;93.70;101984.97;5050899;28;20051;-38
2023/12/17 04:52:58;;;;;;;18.55;10.43;;;;;;;-0.28;93.17;101987.97;5051277;28;20036;-38
2023/12/17 04:55:24;;;;;;;20.17;10.48;;;;;;;-0.36;92.49;101991.88;5051202;28;20387;-38
2023/12/17 04:57:49;;;;;;;19.08;10.98;;;;;;;-0.31;92.41;101995.13;5051006;28;20162;-39
2023/12/17 05:00:15;;;;;;;20.23;10.27;;;;;;;-0.41;93.37;101990.34;5050825;28;20043;-38
2023/12/17 05:02:41;;;;;;;19.02;10.52;;;;;;;-0.37;93.70;101992.81;5051261;28;20476;-39
2023/12/17 05:05:06;;;;;;;21.67;11.10;;;;;;;-0.22;91.99;101992.03;5051294;28;20029;-39
2023/12/17 05:07:32;;;;;;;18.70;10.43;;;;;;;-0.22;91.45;101999.88;5051145;28;20100;-36
2023/12/17 05:09:58;;;;;;;18.35;10.60;;;;;;;-0.24;91.06;101991.28;5050870;28;20024;-39
2023/12/17 05:12:23;;;;;;;19.05;10.95;;;;;;;-0.20;90.91;101966.63;5050925;28;20043;-38
2023/12/17 05:14:48;;;;;;;21.55;11.18;;;;;;;-0.10;89.56;101990.56;5050511;28;20126;-36
2023/12/17 05:17:14;;;;;;;21.70;11.63;;;;;;;0.16;87.74;101991.81;5050847;28;20086;-39
2023/12/17 05:19:39;;;;;;;24.15;13.10;;;;;;;0.13;88.42;101986.72;5051257;28;20032;-39
2023/12/17 05:22:05;;;;;;;24.92;12.98;;;;;;;0.26;87.31;101989.56;5051154;28;20021;-38
2023/12/17 05:24:30;;;;;;;25.60;13.43;;;;;;;0.25;85.68;101986.09;5049815;28;20071;-40
2023/12/17 05:26:55;;;;;;;24.27;12.30;;;;;;;0.41;87.07;101988.72;5050882;28;20032;-37
2023/12/17 05:29:21;;;;;;;22.63;12.20;;;;;;;0.33;85.01;101989.13;5050758;28;20389;-38
2023/12/17 05:31:46;;;;;;;22.13;12.13;;;;;;;-0.04;87.43;101990.22;5051123;28;20029;-39
2023/12/17 05:34:11;;;;;;;24.65;12.93;;;;;;;0.66;85.43;101987.38;5034146;28;20061;-37
2023/12/17 05:36:37;;;;;;;22.85;11.73;;;;;;;0.15;84.66;101990.97;5033284;28;20037;-38
2023/12/17 05:39:02;;;;;;;20.85;11.23;;;;;;;0.41;83.73;102006.22;5050996;28;20029;-38
2023/12/17 05:41:28;;;;;;;21.15;11.57;;;;;;;0.96;85.19;102009.28;5050453;28;20484;-39
2023/12/17 05:43:53;;;;;;;21.08;11.38;;;;;;;0.94;86.08;102010.31;5049265;28;20021;-38
2023/12/17 05:46:19;;;;;;;23.05;12.52;;;;;;;1.32;86.87;102010.75;5049638;28;20389;-40
2023/12/17 05:48:44;;;;;;;24.60;12.82;;;;;;;1.19;84.80;102007.16;5049238;28;20104;-40
2023/12/17 05:51:09;;;;;;;22.15;12.00;;;;;;;1.04;86.96;102019.34;5049706;28;20032;-39
2023/12/17 05:53:35;;;;;;;23.50;12.10;;;;;;;1.11;85.79;102038.22;5048887;28;20037;-40
2023/12/17 05:56:00;;;;;;;22.90;12.45;;;;;;;1.20;84.54;102036.84;5052797;28;20025;-37
2023/12/17 05:58:26;;;;;;;23.02;11.98;;;;;;;1.26;84.48;102042.59;5053703;28;20047;-39
2023/12/17 06:00:51;;;;;;;29.02;12.98;;;;;;;1.10;85.32;102042.59;5053366;28;20108;-40
2023/12/17 06:03:16;;;;;;;22.23;12.02;;;;;;;1.28;85.80;102045.97;5050677;28;20032;-38
2023/12/17 06:05:42;;;;;;;24.00;13.07;;;;;;;1.28;85.10;102053.00;5050792;28;20342;-40
2023/12/17 06:08:07;;;;;;;25.42;13.32;;;;;;;1.44;84.54;102051.19;5051534;28;20048;-40
2023/12/17 06:10:33;;;;;;;27.73;14.27;;;;;;;1.91;83.86;102062.50;5050735;28;20048;-40
2023/12/17 06:12:59;;;;;;;27.88;14.80;;;;;;;2.11;82.50;102053.41;5051066;28;20025;-36
2023/12/17 06:15:24;;;;;;;26.38;14.88;;;;;;;2.20;82.26;102055.50;5051958;28;20198;-39
2023/12/17 06:17:50;;;;;;;27.27;13.63;;;;;;;2.56;81.06;102053.34;5054216;28;20120;-40
2023/12/17 06:20:15;;;;;;;28.50;14.65;;;;;;;2.91;79.89;102051.13;5054515;28;20402;-36
2023/12/17 06:22:40;;;;;;;25.77;14.52;;;;;;;2.77;80.77;102054.63;5054195;28;20535;-39
2023/12/17 06:25:06;;;;;;;23.30;12.70;;;;;;;2.55;80.45;102055.13;5053837;28;20218;-41
2023/12/17 06:27:34;;;;;;;21.67;12.85;;;;;;;2.61;85.37;102049.50;5054142;28;20484;-39
2023/12/17 06:29:59;;;;;;;20.70;11.23;;;;;;;2.57;86.53;102053.28;5053858;28;20082;-40
2023/12/17 06:32:25;;;;;;;19.92;10.85;;;;;;;2.62;87.38;102047.72;5053582;28;20128;-40
2023/12/17 06:34:50;;;;;;;21.35;10.75;;;;;;;2.56;84.77;102056.81;5053259;28;20515;-40
2023/12/17 06:37:15;;;;;;;21.05;11.18;;;;;;;2.54;85.22;102056.91;5053432;28;20021;-37
2023/12/17 06:39:42;;;;;;;17.67;10.35;;;;;;;2.63;84.86;102042.38;5053286;28;20040;-41
2023/12/17 06:42:09;;;;;;;22.80;11.10;;;;;;;3.11;81.26;102034.91;5033401;28;20026;-41
2023/12/17 06:44:35;;;;;;;17.17;10.25;;;;;;;3.99;78.17;102044.94;5044561;28;20508;-41
2023/12/17 06:47:01;;;;;;;17.20;10.30;;;;;;;3.67;78.31;102050.56;5053027;28;20017;-40
2023/12/17 06:49:26;;;;;;;19.38;10.77;;;;;;;3.69;79.22;102045.19;5053226;28;20025;-39
2023/12/17 06:51:52;;;;;;;19.02;10.57;;;;;;;4.45;75.78;102049.66;5052585;28;20064;-40
2023/12/17 06:54:17;;;;;;;17.35;10.55;;;;;;;3.81;77.38;102056.69;5052709;28;20068;-40
2023/12/17 06:56:44;;;;;;;17.63;11.10;;;;;;;3.57;79.73;102054.75;5052641;28;20062;-39
2023/12/17 06:59:09;;;;;;;21.27;12.25;;;;;;;3.10;81.12;102051.66;5052622;28;20481;-40
2023/12/17 07:01:35;;;;;;;23.25;11.82;;;;;;;3.26;80.71;102053.31;5052547;28;20027;-40
2023/12/17 07:04:03;;;;;;;20.35;12.35;;;;;;;3.37;81.26;102056.09;5052512;28;20025;-39
2023/12/17 07:06:30;;;;;;;21.40;11.80;;;;;;;4.57;78.08;102047.13;5052443;28;20024;-41
2023/12/17 07:08:56;;;;;;;23.25;12.73;;;;;;;4.35;76.87;102055.69;5052605;28;20103;-40
2023/12/17 07:11:22;;;;;;;22.25;11.68;;;;;;;4.70;74.79;102059.34;5052528;28;20108;-41
2023/12/17 07:13:49;;;;;;;18.95;10.95;;;;;;;4.56;72.99;102056.00;5052644;28;20024;-41
2023/12/17 07:16:21;;;;;;;17.98;10.93;;;;;;;4.76;75.26;102060.72;5052666;28;20033;-41
2023/12/17 07:18:46;;;;;;;17.42;10.45;;;;;;;5.70;71.83;102059.16;5052308;28;20040;-41
2023/12/17 07:21:12;;;;;;;17.50;10.77;;;;;;;5.55;70.55;102063.78;5051930;28;20029;-41
2023/12/17 07:23:37;;;;;;;17.67;11.02;;;;;;;5.30;70.67;102064.75;5052228;28;20515;-41
2023/12/17 07:26:03;;;;;;;16.50;9.45;;;;;;;5.31;68.92;102058.50;5052055;28;20032;-40
2023/12/17 07:28:28;;;;;;;16.20;9.07;;;;;;;5.48;69.66;102051.97;5052247;28;20031;-39
2023/12/17 07:30:54;;;;;;;13.95;8.93;;;;;;;6.39;66.92;102061.81;5052058;28;20032;-38
2023/12/17 07:33:19;;;;;;;14.68;9.05;;;;;;;5.98;67.21;102055.31;5052055;28;20041;-39
2023/12/17 07:35:44;;;;;;;14.13;7.78;;;;;;;5.82;67.51;102063.50;5052043;28;20036;-39
2023/12/17 07:38:10;;;;;;;12.95;8.02;;;;;;;5.61;67.49;102058.03;5051835;28;20039;-40
2023/12/17 07:40:35;;;;;;;13.23;7.70;;;;;;;5.44;68.88;102056.63;5052106;28;20456;-40
2023/12/17 07:43:01;;;;;;;13.25;7.97;;;;;;;5.97;67.32;102053.59;5051966;28;20021;-38
2023/12/17 07:45:26;;;;;;;12.77;7.60;;;;;;;6.77;65.38;102059.78;5051789;28;20472;-40
2023/12/17 07:47:52;;;;;;;13.88;8.57;;;;;;;7.04;63.74;102059.38;5051584;28;20090;-40
2023/12/17 07:50:17;;;;;;;14.70;8.98;;;;;;;6.58;65.93;102061.22;5052162;28;20343;-40
2023/12/17 07:52:42;;;;;;;12.93;7.93;;;;;;;6.59;65.43;102062.94;5052145;28;20431;-40
2023/12/17 07:55:08;;;;;;;15.40;8.60;;;;;;;6.45;66.39;102066.66;5052229;28;20482;-40
2023/12/17 07:57:34;;;;;;;14.73;8.23;;;;;;;7.01;67.11;102065.75;5051796;28;20132;-39
2023/12/17 07:59:59;;;;;;;12.75;7.28;;;;;;;7.64;67.96;102057.97;5052033;28;20032;-43
2023/12/17 08:02:26;;;;;;;13.23;7.00;;;;;;;8.27;64.94;102062.41;5052570;28;20104;-26
2023/12/17 08:04:51;;;;;;;13.45;6.57;;;;;;;8.87;65.03;102059.91;5052675;28;20028;-26
2023/12/17 08:07:17;;;;;;;11.80;7.45;;;;;;;8.80;62.76;102072.88;5051880;28;20104;-26
2023/12/17 08:09:42;;;;;;;11.45;7.40;;;;;;;9.30;61.05;102057.88;5052276;28;20025;-27
2023/12/17 08:12:08;;;;;;;9.63;6.20;;;;;;;9.23;59.92;102062.06;5052527;28;20033;-26
2023/12/17 08:14:33;;;;;;;9.20;6.00;;;;;;;9.28;59.56;102050.03;5052569;28;20489;-27
2023/12/17 08:16:59;;;;;;;9.82;6.53;;;;;;;9.66;56.60;102044.88;5052590;28;20021;-26
2023/12/17 08:19:25;;;;;;;9.10;6.00;;;;;;;9.83;55.47;102052.13;5051670;28;20027;-26
2023/12/17 08:21:50;;;;;;;10.18;6.38;;;;;;;9.51;54.43;102041.78;5042038;28;20016;-26
2023/12/17 08:24:15;;;;;;;11.10;6.45;;;;;;;9.34;54.20;102059.25;5045023;28;20029;-26
2023/12/17 08:26:41;;;;;;;11.27;7.18;;;;;;;8.79;55.79;102059.72;5031508;28;20022;-26
2023/12/17 08:29:06;;;;;;;9.15;6.00;;;;;;;7.98;57.65;102055.13;5031419;28;20640;-27
2023/12/17 08:31:33;;;;;;;9.50;6.28;;;;;;;7.63;58.51;102051.00;5031529;28;20036;-29
2023/12/17 08:33:59;;;;;;;9.57;6.05;;;;;;;7.12;60.24;102051.66;5031420;28;20465;-27
2023/12/17 08:36:27;;;;;;;8.70;5.53;;;;;;;7.19;61.09;102046.69;5031585;28;20025;-26
2023/12/17 08:38:52;;;;;;;9.27;5.35;;;;;;;7.37;60.94;102047.84;5040394;28;20029;-27
2023/12/17 08:41:17;;;;;;;7.40;5.35;;;;;;;7.33;60.34;102029.66;5051365;28;20040;-27
2023/12/17 08:43:43;;;;;;;9.32;5.93;;;;;;;7.58;59.49;102025.84;5051578;28;20027;-27
2023/12/17 08:46:08;;;;;;;9.00;4.97;;;;;;;7.42;59.77;102031.56;5050990;28;20499;-27
2023/12/17 08:48:33;;;;;;;7.45;5.07;;;;;;;7.61;58.28;102028.22;5051400;28;20431;-27
2023/12/17 08:50:59;;;;;;;6.93;4.60;;;;;;;7.46;58.40;102026.84;5051341;28;20107;-26
2023/12/17 08:53:26;;;;;;;8.05;4.93;;;;;;;7.21;58.31;102016.47;5051320;28;20424;-26
2023/12/17 08:55:52;;;;;;;9.10;4.95;;;;;;;6.76;59.44;102013.97;5051177;28;20041;-27
2023/12/17 08:58:17;;;;;;;7.93;4.88;;;;;;;6.56;60.69;102007.59;5051245;28;20468;-26
2023/12/17 09:00:42;;;;;;;8.95;5.00;;;;;;;6.28;60.88;102002.81;5051634;28;20039;-27
2023/12/17 09:03:08;;;;;;;8.82;4.97;;;;;;;6.36;61.24;101990.69;5051882;28;20017;-27
2023/12/17 09:05:35;;;;;;;10.10;5.35;;;;;;;6.23;62.36;101987.31;5050882;28;20057;-27
2023/12/17 09:08:01;;;;;;;7.30;4.93;;;;;;;5.57;64.43;101987.06;5050994;28;20104;-28
2023/12/17 09:10:26;;;;;;;9.25;5.05;;;;;;;6.19;63.02;101989.34;5050838;28;20096;-26
2023/12/17 09:12:51;;;;;;;7.78;4.75;;;;;;;6.60;61.39;101973.81;5051222;28;20017;-28
2023/12/17 09:15:17;;;;;;;8.48;5.22;;;;;;;6.23;61.28;101974.94;5051021;28;20106;-28
2023/12/17 09:17:43;;;;;;;8.23;5.03;;;;;;;6.26;62.33;101973.84;5051150;28;20082;-27
2023/12/17 09:20:10;;;;;;;7.25;4.85;;;;;;;6.48;61.23;101964.22;5050850;28;20104;-27
2023/12/17 09:22:36;;;;;;;6.43;4.47;;;;;;;6.73;60.24;101981.59;5051022;28;20135;-27
2023/12/17 09:25:01;;;;;;;7.78;4.90;;;;;;;5.96;60.58;101964.72;5050876;28;20496;-27
2023/12/17 09:27:27;;;;;;;7.95;5.20;;;;;;;6.04;61.35;101957.03;5050616;28;20021;-27
2023/12/17 09:29:52;;;;;;;8.05;5.22;;;;;;;5.85;62.41;101965.50;5052184;28;20515;-27
2023/12/17 09:32:17;;;;;;;7.75;5.10;;;;;;;6.28;61.63;101968.44;5054934;28;20053;-26
2023/12/17 09:34:43;;;;;;;8.80;5.40;;;;;;;6.67;61.04;101956.47;5054987;28;20036;-28
2023/12/17 09:37:08;;;;;;;10.18;5.45;;;;;;;6.67;60.91;101953.84;5055075;28;20601;-27
2023/12/17 09:39:34;;;;;;;9.15;5.50;;;;;;;6.28;62.41;101955.22;5054691;28;20048;-27
2023/12/17 09:42:00;;;;;;;8.63;5.22;;;;;;;5.89;62.33;101952.91;5054854;28;20481;-26
2023/12/17 09:44:26;;;;;;;9.90;5.35;;;;;;;6.40;62.19;101952.44;5054488;28;20036;-27
2023/12/17 09:46:51;;;;;;;8.43;5.50;;;;;;;6.22;63.02;101953.88;5054727;28;20020;-26
2023/12/17 09:49:17;;;;;;;8.98;5.18;;;;;;;6.48;61.32;101951.00;5054669;28;20020;-27
2023/12/17 09:51:50;;;;;;;8.43;4.90;;;;;;;6.29;62.11;101947.16;5054380;28;20031;-27
2023/12/17 09:54:16;;;;;;;9.52;5.53;;;;;;;6.61;62.36;101949.03;5054243;28;20099;-28
2023/12/17 09:56:47;;;;;;;10.23;5.50;;;;;;;6.59;61.90;101954.44;5054445;28;20451;-26
2023/12/17 09:59:12;;;;;;;8.15;5.18;;;;;;;6.74;61.67;101951.53;5054217;28;20021;-26
2023/12/17 10:01:37;;;;;;;8.13;5.38;;;;;;;6.93;61.49;101941.13;5054327;28;20079;-27
2023/12/17 10:04:03;;;;;;;10.10;5.53;;;;;;;7.11;60.78;101948.53;5054185;28;20033;-26
2023/12/17 10:06:31;;;;;;;8.75;5.50;;;;;;;7.13;59.57;101946.59;5054120;28;20020;-26
2023/12/17 10:08:58;;;;;;;8.93;5.43;;;;;;;7.08;60.79;101948.75;5054105;28;20434;-27
2023/12/17 10:11:24;;;;;;;8.38;5.57;;;;;;;6.92;60.21;101931.50;5054147;28;20025;-26
2023/12/17 10:13:51;;;;;;;8.32;5.00;;;;;;;6.83;60.14;101934.88;5054182;28;20036;-27
2023/12/17 10:16:16;;;;;;;7.68;4.93;;;;;;;6.95;59.29;101938.34;5054407;28;20055;-27
2023/12/17 10:18:48;;;;;;;7.68;5.28;;;;;;;7.11;59.60;101943.22;5054530;28;20025;-27
2023/12/17 10:21:13;;;;;;;8.05;4.95;;;;;;;6.44;60.65;101945.09;5054347;28;20021;-27
2023/12/17 10:23:46;;;;;;;7.60;4.60;;;;;;;6.38;60.70;101940.31;5053586;28;20174;-26
2023/12/17 10:26:12;;;;;;;7.80;4.55;;;;;;;6.35;60.15;101937.91;5053821;28;20021;-27
2023/12/17 10:28:42;;;;;;;8.15;4.90;;;;;;;6.92;59.98;101936.78;5053877;28;20076;-27
2023/12/17 10:31:10;;;;;;;8.68;5.43;;;;;;;7.00;58.33;101933.50;5052759;28;20025;-26
2023/12/17 10:33:43;;;;;;;9.50;5.40;;;;;;;6.94;59.92;101926.09;5052596;28;20129;-27
2023/12/17 10:36:10;;;;;;;8.38;5.50;;;;;;;6.71;59.56;101923.50;5052351;28;20497;-27
2023/12/17 10:38:37;;;;;;;9.18;5.60;;;;;;;7.33;58.31;101921.06;5052072;28;20029;-27
2023/12/17 10:41:04;;;;;;;10.05;6.25;;;;;;;7.29;59.17;101920.50;5052119;28;20025;-26
2023/12/17 10:43:32;;;;;;;12.32;6.80;;;;;;;7.44;58.96;101913.06;5052632;28;20021;-26
2023/12/17 10:45:59;;;;;;;8.40;5.68;;;;;;;6.79;59.35;101912.28;5052157;28;20063;-26
2023/12/17 10:48:26;;;;;;;11.13;6.13;;;;;;;6.89;60.45;101907.09;5052173;28;20025;-26
2023/12/17 10:50:54;;;;;;;11.65;6.18;;;;;;;7.21;59.71;101907.06;5052286;28;20021;-27
2023/12/17 10:53:19;;;;;;;9.73;6.43;;;;;;;7.49;59.80;101905.56;5052362;28;20428;-28
2023/12/17 10:55:45;;;;;;;10.60;6.85;;;;;;;7.34;59.97;101901.56;5052694;28;20025;-27
2023/12/17 10:58:19;;;;;;;9.85;6.60;;;;;;;7.67;58.76;101897.84;5052306;28;20408;-27
2023/12/17 11:00:45;;;;;;;9.75;6.00;;;;;;;7.29;58.26;101888.72;5052807;28;20032;-27
2023/12/17 11:03:13;;;;;;;10.02;5.93;;;;;;;7.37;58.79;101888.09;5051887;28;20017;-28
2023/12/17 11:05:56;;;;;;;9.38;5.28;;;;;;;7.45;57.74;101885.59;5052130;28;20402;-27
2023/12/17 11:08:24;;;;;;;10.45;6.38;;;;;;;7.50;58.45;101874.59;5052128;28;20033;-26
2023/12/17 11:10:49;;;;;;;10.60;6.65;;;;;;;7.71;59.10;101872.78;5052101;28;20028;-28
2023/12/17 11:13:15;;;;;;;14.35;7.13;;;;;;;7.56;58.68;101868.81;5051803;28;20500;-27
2023/12/17 11:15:40;;;;;;;9.77;5.60;;;;;;;7.11;59.53;101864.63;5040736;28;20029;-29